Pagrindinis puslapis
METAR-TAF:

METAR-TAF

Oro uostai :

Pataja-Rayong, Tailandas

platuma: 12-38N, ilguma: 101-21E, Aukštis: 3 m

Dabartinis oras

Ataskaita buvo paskelbta 17 minutes, ne 09:30 UTC
Vėjas 5 kt iš Vakarų
Temperatūra 28°C
Drėgmė 70%
Slėgis 1011 hPa
Matomumas: 5000 m
Mažai debesys ne aukštis 2000 ft, aukštai iškilę kamuoliniai debesys.
rūkana

METAR: VTBU 170930Z 26005KT 5000 BR FEW020TCU 28/22 Q1011 NOSIG

Laikas: 16:47 (09:47 UTC)

Prognozė

Ataskaita buvo paskelbta 4 valandos ir 47 minutes, ne 05:00 UTC
Prognozė galioja nuo 17 metu 06 UTC su 18 metu 06 UTC
Vėjas 10 kt iš Pietų
Matomumas: 6000 m
Mažai debesys ne aukštis 2000 ft
Tapsmas
nuo 17 metu 12 UTC su 17 metu 14 UTC
Vėjas 4 kt iš Šiaurės
Tapsmas
nuo 18 metu 03 UTC su 18 metu 05 UTC
Vėjas 10 kt iš Pietų

TAF: VTBU 170500Z 1706/1806 18010KT 6000 FEW020 BECMG 1712/1714 35004KT BECMG 1803/1805 18010KT

Orai ataskaitas ir orų prognozės (METAR, TAF).

turimą stotys yra geltonos ir raudonos taškus žemėlapyje.

Perkelti pele per norėdami pamatyti stoties vardą.

Tada spustelėkite, norėdami matyti oro stebėjimo ir prognozės.

Norėdami pakeisti žemėlapį: spustelėkite ant žalios mygtukų su juodo kryžiaus žemyn,; žalią mygtuką su brūkšneliu, jei norite nutolinti; arba žalių rodyklių gretimoms žemėlapius.


METAR-TAF: